Time;durP1;ratioP1;P1;durP2;ratioP2;P2;SDS_P1;SDS_P2;PMS_P1;PMS_P2;Temp;Humidity;BMP_temperature;BMP_pressure;BME280_temperature;BME280_humidity;BME280_pressure;Samples;Min_cycle;Max_cycle;Signal;HPM_P1;HPM_P2
2024/02/03 00:01:49;;;;;;;648.83;458.75;;;;;;;;;;7341124;19;20369;-34
2024/02/03 00:04:18;;;;;;;646.92;455.83;;;;;;;;;;7341136;19;20356;-35
2024/02/03 00:06:48;;;;;;;644.80;458.88;;;;;;;;;;7347854;19;20328;-34
2024/02/03 00:09:18;;;;;;;649.15;457.83;;;;;;;;;;7328406;19;20317;-37
2024/02/03 00:11:51;;;;;;;641.13;452.55;;;;;;;;;;7349916;19;20418;-37
2024/02/03 00:14:20;;;;;;;638.33;448.88;;;;;;;;;;7328809;19;20450;-34
2024/02/03 00:16:50;;;;;;;637.72;447.55;;;;;;;;;;7337977;19;20333;-37
2024/02/03 00:19:19;;;;;;;631.30;446.75;;;;;;;;;;7349960;19;20734;-35
2024/02/03 00:21:49;;;;;;;628.83;440.77;;;;;;;;;;7345949;19;20367;-34
2024/02/03 00:24:19;;;;;;;623.17;439.20;;;;;;;;;;7347121;19;20320;-34
2024/02/03 00:26:51;;;;;;;622.60;433.75;;;;;;;;;;7350710;19;20321;-34
2024/02/03 00:29:20;;;;;;;618.45;433.10;;;;;;;;;;7328792;19;20321;-40
2024/02/03 00:31:50;;;;;;;621.97;435.27;;;;;;;;;;7334002;19;20364;-35
2024/02/03 00:34:19;;;;;;;621.15;433.83;;;;;;;;;;7350693;19;20745;-36
2024/02/03 00:36:49;;;;;;;618.25;429.38;;;;;;;;;;7343710;19;20890;-33
2024/02/03 00:39:19;;;;;;;609.25;425.67;;;;;;;;;;7351558;19;20368;-35
2024/02/03 00:41:51;;;;;;;609.30;424.77;;;;;;;;;;7349303;19;20919;-36
2024/02/03 00:44:20;;;;;;;602.37;409.53;;;;;;;;;;7328492;19;20325;-36
2024/02/03 00:46:50;;;;;;;601.80;416.58;;;;;;;;;;7336581;19;20723;-33
2024/02/03 00:49:19;;;;;;;602.20;414.33;;;;;;;;;;7350722;19;20340;-34
2024/02/03 00:51:49;;;;;;;592.57;407.03;;;;;;;;;;7347085;19;20436;-34
2024/02/03 00:54:18;;;;;;;592.08;403.23;;;;;;;;;;7350343;19;20325;-34
2024/02/03 00:56:50;;;;;;;591.25;407.25;;;;;;;;;;7350254;19;20321;-37
2024/02/03 00:59:20;;;;;;;593.17;405.17;;;;;;;;;;7328501;19;20323;-36
2024/02/03 01:01:49;;;;;;;590.20;401.77;;;;;;;;;;7342233;19;20361;-35
2024/02/03 01:04:19;;;;;;;587.90;398.90;;;;;;;;;;7347397;19;20376;-34
2024/02/03 01:06:49;;;;;;;585.17;396.15;;;;;;;;;;7347279;19;20345;-36
2024/02/03 01:09:19;;;;;;;572.75;391.42;;;;;;;;;;7328680;19;20885;-33
2024/02/03 01:11:52;;;;;;;576.53;390.60;;;;;;;;;;7341597;19;20360;-35
2024/02/03 01:14:21;;;;;;;574.45;389.60;;;;;;;;;;7349326;19;20886;-32
2024/02/03 01:16:51;;;;;;;566.20;385.88;;;;;;;;;;7325839;19;20410;-34
2024/02/03 01:19:21;;;;;;;570.10;384.80;;;;;;;;;;7348524;19;20868;-36
2024/02/03 01:21:50;;;;;;;557.80;376.30;;;;;;;;;;7328980;19;20440;-35
2024/02/03 01:24:20;;;;;;;560.00;379.55;;;;;;;;;;7349619;19;20364;-35
2024/02/03 01:26:52;;;;;;;557.67;373.48;;;;;;;;;;7340109;19;20438;-35
2024/02/03 01:29:22;;;;;;;557.40;374.92;;;;;;;;;;7348639;19;20735;-35
2024/02/03 01:31:51;;;;;;;552.95;372.60;;;;;;;;;;7323580;19;20361;-34
2024/02/03 01:34:20;;;;;;;554.88;370.17;;;;;;;;;;7348277;19;20335;-34
2024/02/03 01:36:50;;;;;;;550.83;371.43;;;;;;;;;;7331205;19;20345;-37
2024/02/03 01:39:20;;;;;;;546.42;370.13;;;;;;;;;;7349082;19;20860;-35
2024/02/03 01:41:52;;;;;;;543.50;363.35;;;;;;;;;;7341089;19;20349;-35
2024/02/03 01:44:21;;;;;;;543.00;361.35;;;;;;;;;;7347516;19;20453;-39
2024/02/03 01:46:51;;;;;;;540.28;359.35;;;;;;;;;;7325972;19;20335;-35
2024/02/03 01:49:20;;;;;;;542.17;359.70;;;;;;;;;;7349405;19;20328;-34
2024/02/03 01:51:50;;;;;;;535.10;351.70;;;;;;;;;;7333605;19;20356;-35
2024/02/03 01:54:19;;;;;;;526.97;349.65;;;;;;;;;;7348324;19;20321;-35
2024/02/03 01:56:52;;;;;;;528.45;349.52;;;;;;;;;;7343766;19;20313;-34
2024/02/03 01:59:21;;;;;;;526.97;347.98;;;;;;;;;;7347491;19;20751;-36
2024/02/03 02:01:51;;;;;;;526.70;346.33;;;;;;;;;;7327172;19;20717;-34
2024/02/03 02:04:21;;;;;;;522.83;343.80;;;;;;;;;;7346583;19;20321;-34
2024/02/03 02:06:51;;;;;;;525.65;346.30;;;;;;;;;;7325473;19;20366;-37
2024/02/03 02:09:21;;;;;;;521.00;342.85;;;;;;;;;;7348322;19;20408;-38
2024/02/03 02:11:54;;;;;;;518.50;338.33;;;;;;;;;;7329358;19;20389;-35
2024/02/03 02:14:24;;;;;;;511.10;336.35;;;;;;;;;;7346412;19;20321;-35
2024/02/03 02:16:57;;;;;;;509.50;334.98;;;;;;;;;;7325489;19;20679;-35
2024/02/03 02:19:26;;;;;;;512.20;332.20;;;;;;;;;;7346862;19;20758;-32
2024/02/03 02:21:58;;;;;;;510.08;329.38;;;;;;;;;;7324404;19;20503;-38
2024/02/03 02:24:28;;;;;;;506.15;326.98;;;;;;;;;;7346689;19;20328;-34
2024/02/03 02:26:57;;;;;;;505.40;326.83;;;;;;;;;;7324950;19;20706;-38
2024/02/03 02:29:27;;;;;;;504.10;326.20;;;;;;;;;;7345025;19;20317;-35
2024/02/03 02:31:56;;;;;;;502.92;319.98;;;;;;;;;;7323327;19;20373;-38
2024/02/03 02:34:26;;;;;;;503.75;324.63;;;;;;;;;;7346012;19;20736;-36
2024/02/03 02:36:55;;;;;;;491.83;316.20;;;;;;;;;;7324168;19;20420;-36
2024/02/03 02:39:28;;;;;;;498.63;315.30;;;;;;;;;;7346503;19;20400;-37
2024/02/03 02:41:57;;;;;;;490.15;313.52;;;;;;;;;;7324082;19;20374;-34
2024/02/03 02:44:27;;;;;;;486.70;308.08;;;;;;;;;;7344632;19;20424;-34
2024/02/03 02:46:56;;;;;;;493.20;313.30;;;;;;;;;;7323776;19;20332;-36
2024/02/03 02:49:25;;;;;;;487.77;307.27;;;;;;;;;;7346310;19;20342;-34
2024/02/03 02:51:55;;;;;;;482.92;305.23;;;;;;;;;;7322959;19;20377;-37
2024/02/03 02:54:27;;;;;;;480.92;300.33;;;;;;;;;;7345588;19;20325;-35
2024/02/03 02:56:57;;;;;;;472.67;299.38;;;;;;;;;;7317791;19;20337;-35
2024/02/03 02:59:26;;;;;;;480.88;301.60;;;;;;;;;;7345595;19;20325;-38
2024/02/03 03:01:56;;;;;;;476.40;299.58;;;;;;;;;;7323140;19;20357;-34
2024/02/03 03:04:25;;;;;;;473.13;297.57;;;;;;;;;;7344029;19;20399;-37
2024/02/03 03:06:55;;;;;;;477.52;297.00;;;;;;;;;;7323378;19;20329;-38
2024/02/03 03:09:25;;;;;;;467.90;290.57;;;;;;;;;;7344736;19;20719;-35
2024/02/03 03:11:58;;;;;;;467.90;291.52;;;;;;;;;;7322953;19;20364;-36
2024/02/03 03:14:27;;;;;;;468.80;289.08;;;;;;;;;;7344652;19;20336;-35
2024/02/03 03:16:57;;;;;;;461.40;286.17;;;;;;;;;;7323398;19;20472;-37
2024/02/03 03:19:26;;;;;;;458.73;282.65;;;;;;;;;;7345191;19;20392;-35
2024/02/03 03:21:56;;;;;;;459.33;281.17;;;;;;;;;;7321955;19;20351;-39
2024/02/03 03:24:25;;;;;;;460.37;282.60;;;;;;;;;;7344057;19;20877;-36
2024/02/03 03:26:57;;;;;;;459.00;277.58;;;;;;;;;;7322872;19;20859;-34
2024/02/03 03:29:27;;;;;;;457.98;278.88;;;;;;;;;;7344891;19;20325;-35
2024/02/03 03:31:56;;;;;;;456.30;279.02;;;;;;;;;;7322182;19;20368;-36
2024/02/03 03:34:25;;;;;;;455.45;274.25;;;;;;;;;;7343645;19;20864;-35
2024/02/03 03:36:55;;;;;;;450.40;274.30;;;;;;;;;;7321707;19;20560;-38
2024/02/03 03:39:24;;;;;;;446.05;271.98;;;;;;;;;;7343760;19;20369;-38
2024/02/03 03:41:54;;;;;;;447.17;267.70;;;;;;;;;;7322211;19;20368;-34
2024/02/03 03:44:26;;;;;;;444.90;264.55;;;;;;;;;;7343696;19;20461;-37
2024/02/03 03:46:55;;;;;;;441.38;265.50;;;;;;;;;;7321930;19;20337;-37
2024/02/03 03:49:27;;;;;;;441.60;264.10;;;;;;;;;;7343895;19;20321;-35
2024/02/03 03:51:56;;;;;;;434.17;257.08;;;;;;;;;;7320927;19;20379;-36
2024/02/03 03:54:26;;;;;;;436.02;256.60;;;;;;;;;;7343383;19;20325;-34
2024/02/03 03:56:55;;;;;;;431.77;254.80;;;;;;;;;;7321853;19;20317;-35
2024/02/03 03:59:27;;;;;;;431.50;257.13;;;;;;;;;;7344176;19;20392;-35
2024/02/03 04:01:56;;;;;;;428.40;252.00;;;;;;;;;;7321397;19;20371;-34
2024/02/03 04:04:26;;;;;;;427.77;252.13;;;;;;;;;;7342709;19;20329;-35
2024/02/03 04:06:55;;;;;;;429.70;250.55;;;;;;;;;;7322089;19;20329;-38
2024/02/03 04:09:25;;;;;;;423.58;248.15;;;;;;;;;;7344575;19;20345;-35
2024/02/03 04:11:54;;;;;;;418.00;248.10;;;;;;;;;;7320953;19;20384;-35
2024/02/03 04:14:26;;;;;;;424.80;249.77;;;;;;;;;;7342775;19;20368;-35
2024/02/03 04:16:55;;;;;;;421.53;249.03;;;;;;;;;;7321520;19;20441;-38
2024/02/03 04:19:25;;;;;;;416.33;240.98;;;;;;;;;;7343179;19;20320;-34
2024/02/03 04:21:54;;;;;;;414.00;241.98;;;;;;;;;;7320512;19;20401;-35
2024/02/03 04:24:24;;;;;;;404.48;240.30;;;;;;;;;;7342469;19;20792;-35
2024/02/03 04:26:53;;;;;;;413.42;241.90;;;;;;;;;;7320962;19;20325;-39
2024/02/03 04:29:23;;;;;;;409.42;239.73;;;;;;;;;;7343392;19;20329;-33
2024/02/03 04:31:55;;;;;;;406.10;237.45;;;;;;;;;;7320616;19;20371;-35
2024/02/03 04:34:25;;;;;;;411.40;237.80;;;;;;;;;;7342081;19;20682;-35
2024/02/03 04:36:54;;;;;;;401.83;232.32;;;;;;;;;;7319621;19;20327;-32
2024/02/03 04:39:24;;;;;;;399.00;233.68;;;;;;;;;;7342777;19;20676;-35
2024/02/03 04:41:53;;;;;;;399.23;229.60;;;;;;;;;;7320492;19;20377;-35
2024/02/03 04:44:22;;;;;;;391.05;226.57;;;;;;;;;;7341380;19;20892;-36
2024/02/03 04:46:52;;;;;;;386.90;224.15;;;;;;;;;;7320689;19;20331;-36
2024/02/03 04:49:24;;;;;;;390.55;223.85;;;;;;;;;;7343410;19;20321;-33
2024/02/03 04:51:54;;;;;;;382.98;221.65;;;;;;;;;;7322029;19;20345;-37
2024/02/03 04:54:23;;;;;;;377.45;218.80;;;;;;;;;;7349052;19;20337;-37
2024/02/03 04:56:53;;;;;;;379.20;220.23;;;;;;;;;;7327317;19;20883;-33
2024/02/03 04:59:22;;;;;;;375.55;217.10;;;;;;;;;;7350961;19;20321;-34
2024/02/03 05:01:51;;;;;;;372.50;213.63;;;;;;;;;;7326480;19;20912;-35
2024/02/03 05:04:23;;;;;;;366.10;211.88;;;;;;;;;;7348088;19;20392;-35
2024/02/03 05:06:53;;;;;;;372.77;213.57;;;;;;;;;;7327174;19;20407;-38
2024/02/03 05:09:23;;;;;;;364.85;208.15;;;;;;;;;;7349871;19;21011;-35
2024/02/03 05:11:53;;;;;;;365.40;207.65;;;;;;;;;;7326389;19;20361;-35
2024/02/03 05:14:22;;;;;;;362.75;208.75;;;;;;;;;;7349108;19;20317;-35
2024/02/03 05:16:52;;;;;;;359.33;206.40;;;;;;;;;;7327310;19;20332;-35
2024/02/03 05:19:25;;;;;;;356.73;204.55;;;;;;;;;;7349861;19;20332;-36
2024/02/03 05:21:55;;;;;;;351.05;201.73;;;;;;;;;;7326622;19;20913;-37
2024/02/03 05:24:25;;;;;;;350.95;204.43;;;;;;;;;;7348089;19;20345;-36
2024/02/03 05:26:54;;;;;;;350.52;201.15;;;;;;;;;;7326877;19;20427;-35
2024/02/03 05:29:24;;;;;;;341.98;197.38;;;;;;;;;;7348233;19;20676;-34
2024/02/03 05:31:53;;;;;;;335.67;191.95;;;;;;;;;;7325604;19;20360;-36
2024/02/03 05:34:25;;;;;;;337.43;194.00;;;;;;;;;;7349764;19;20722;-34
2024/02/03 05:36:54;;;;;;;333.87;192.30;;;;;;;;;;7325779;19;20321;-34
2024/02/03 05:39:24;;;;;;;338.02;192.35;;;;;;;;;;7347955;19;20325;-34
2024/02/03 05:41:53;;;;;;;330.52;188.20;;;;;;;;;;7325753;19;20815;-35
2024/02/03 05:44:23;;;;;;;330.95;189.75;;;;;;;;;;7347113;19;20329;-34
2024/02/03 05:46:52;;;;;;;331.13;187.13;;;;;;;;;;7325765;19;20333;-34
2024/02/03 05:49:24;;;;;;;330.63;188.95;;;;;;;;;;7348903;19;20346;-34
2024/02/03 05:51:54;;;;;;;321.27;181.30;;;;;;;;;;7325271;19;20364;-33
2024/02/03 05:54:23;;;;;;;322.17;184.77;;;;;;;;;;7346630;19;20353;-32
2024/02/03 05:56:54;;;;;;;320.63;180.20;;;;;;;;;;7326183;19;20353;-34
2024/02/03 05:59:24;;;;;;;320.65;181.35;;;;;;;;;;7348449;19;20335;-35
2024/02/03 06:02:06;;;;;;;322.25;180.23;;;;;;;;;;7326374;19;20371;-38
2024/02/03 06:04:39;;;;;;;313.75;178.27;;;;;;;;;;7346483;19;20879;-33
2024/02/03 06:07:09;;;;;;;313.90;174.77;;;;;;;;;;7326377;19;20889;-34
2024/02/03 06:09:38;;;;;;;306.52;172.93;;;;;;;;;;7347641;19;20337;-38
2024/02/03 06:12:09;;;;;;;311.92;174.55;;;;;;;;;;7325923;19;20390;-35
2024/02/03 06:14:40;;;;;;;304.45;171.50;;;;;;;;;;7346712;19;20872;-36
2024/02/03 06:17:09;;;;;;;306.13;172.10;;;;;;;;;;7326664;19;21286;-34
2024/02/03 06:19:41;;;;;;;301.15;167.50;;;;;;;;;;7347402;19;20328;-34
2024/02/03 06:22:12;;;;;;;298.20;168.70;;;;;;;;;;7325493;19;20322;-34
2024/02/03 06:24:42;;;;;;;298.98;166.05;;;;;;;;;;7346665;19;20324;-38
2024/02/03 06:27:11;;;;;;;298.30;167.80;;;;;;;;;;7325796;19;20376;-36
2024/02/03 06:29:41;;;;;;;296.75;164.52;;;;;;;;;;7347485;19;20335;-37
2024/02/03 06:32:10;;;;;;;293.08;164.05;;;;;;;;;;7325458;19;20370;-35
2024/02/03 06:34:42;;;;;;;293.13;163.10;;;;;;;;;;7345828;19;20889;-37
2024/02/03 06:37:12;;;;;;;286.63;160.55;;;;;;;;;;7326207;19;20304;-35
2024/02/03 06:39:41;;;;;;;285.57;160.70;;;;;;;;;;7346861;19;20743;-34
2024/02/03 06:42:11;;;;;;;283.30;159.15;;;;;;;;;;7325499;19;20301;-35
2024/02/03 06:44:41;;;;;;;282.33;157.48;;;;;;;;;;7346036;19;20375;-35
2024/02/03 06:47:12;;;;;;;281.17;156.32;;;;;;;;;;7324035;19;20317;-38
2024/02/03 06:49:44;;;;;;;275.47;155.80;;;;;;;;;;7346775;19;20325;-35
2024/02/03 06:52:13;;;;;;;274.60;155.15;;;;;;;;;;7324778;19;20352;-35
2024/02/03 06:54:43;;;;;;;280.25;155.63;;;;;;;;;;7345259;19;20341;-36
2024/02/03 06:57:12;;;;;;;270.05;152.82;;;;;;;;;;7325217;19;20309;-34
2024/02/03 06:59:42;;;;;;;270.92;150.15;;;;;;;;;;7346523;19;20351;-35
2024/02/03 07:02:11;;;;;;;263.80;150.05;;;;;;;;;;7323716;19;20335;-34
2024/02/03 07:04:40;;;;;;;257.98;146.88;;;;;;;;;;7345101;19;20324;-35
2024/02/03 07:07:13;;;;;;;263.98;149.07;;;;;;;;;;7324557;19;20381;-35
2024/02/03 07:09:43;;;;;;;262.00;149.27;;;;;;;;;;7345008;19;20340;-34
2024/02/03 07:12:12;;;;;;;263.85;146.07;;;;;;;;;;7324361;19;21134;-35
2024/02/03 07:14:42;;;;;;;261.50;145.82;;;;;;;;;;7343020;19;20699;-35
2024/02/03 07:17:11;;;;;;;259.98;144.77;;;;;;;;;;7324798;19;20765;-38
2024/02/03 07:19:40;;;;;;;255.00;144.30;;;;;;;;;;7345394;19;20408;-36
2024/02/03 07:22:13;;;;;;;253.27;143.13;;;;;;;;;;7323359;19;20337;-33
2024/02/03 07:24:42;;;;;;;247.98;141.20;;;;;;;;;;7345702;19;20329;-34
2024/02/03 07:27:12;;;;;;;252.10;140.85;;;;;;;;;;7324781;19;20301;-36
2024/02/03 07:29:41;;;;;;;248.90;139.90;;;;;;;;;;7346006;19;20324;-35
2024/02/03 07:32:11;;;;;;;245.32;138.68;;;;;;;;;;7323755;19;20278;-36
2024/02/03 07:34:41;;;;;;;249.23;140.20;;;;;;;;;;7343782;19;20442;-36
2024/02/03 07:37:15;;;;;;;246.90;139.25;;;;;;;;;;7323600;19;20329;-35
2024/02/03 07:39:44;;;;;;;241.65;138.13;;;;;;;;;;7343146;19;20331;-35
2024/02/03 07:42:15;;;;;;;507.40;327.83;;;;;;;;;;7318972;19;20338;-35
2024/02/03 07:44:45;;;;;;;713.95;510.67;;;;;;;;;;7344044;19;20320;-34
2024/02/03 07:47:14;;;;;;;413.52;231.48;;;;;;;;;;7323801;19;20856;-32
2024/02/03 07:49:44;;;;;;;351.17;191.10;;;;;;;;;;7345024;19;20344;-32
2024/02/03 07:52:16;;;;;;;401.25;215.60;;;;;;;;;;7322680;19;20305;-36
2024/02/03 07:54:45;;;;;;;476.80;278.43;;;;;;;;;;7344057;19;20342;-34
2024/02/03 07:57:15;;;;;;;425.38;228.57;;;;;;;;;;7324124;19;20292;-34
2024/02/03 07:59:44;;;;;;;415.38;222.52;;;;;;;;;;7343815;19;20435;-33
2024/02/03 08:02:14;;;;;;;402.42;211.40;;;;;;;;;;7322561;19;20289;-33
2024/02/03 08:04:43;;;;;;;343.45;181.43;;;;;;;;;;7343164;19;20395;-34
2024/02/03 08:07:15;;;;;;;330.13;169.10;;;;;;;;;;7322454;19;20909;-35
2024/02/03 08:09:45;;;;;;;307.47;155.10;;;;;;;;;;7344083;19;20340;-33
2024/02/03 08:12:14;;;;;;;350.00;182.63;;;;;;;;;;7323464;19;20319;-34
2024/02/03 08:14:45;;;;;;;442.40;238.65;;;;;;;;;;7342718;19;20335;-33
2024/02/03 08:17:14;;;;;;;443.38;241.30;;;;;;;;;;7317547;19;20301;-35
2024/02/03 08:19:43;;;;;;;330.70;168.63;;;;;;;;;;7341535;19;20320;-32
2024/02/03 08:22:15;;;;;;;430.50;238.32;;;;;;;;;;7319209;19;20300;-32
2024/02/03 08:24:45;;;;;;;370.77;190.87;;;;;;;;;;7343399;19;20347;-34
2024/02/03 08:27:15;;;;;;;336.77;166.77;;;;;;;;;;7326309;19;20292;-34
2024/02/03 08:29:44;;;;;;;319.90;163.30;;;;;;;;;;7351135;19;20325;-34
2024/02/03 08:32:13;;;;;;;301.35;153.60;;;;;;;;;;7328958;19;20373;-34
2024/02/03 08:34:44;;;;;;;283.02;143.05;;;;;;;;;;7347899;19;20789;-36
2024/02/03 08:37:19;;;;;;;355.55;179.27;;;;;;;;;;7329228;19;20395;-32
2024/02/03 08:39:48;;;;;;;351.90;179.90;;;;;;;;;;7350319;19;20860;-31
2024/02/03 08:42:19;;;;;;;308.05;158.85;;;;;;;;;;7329322;19;20301;-31
2024/02/03 08:44:49;;;;;;;340.33;166.48;;;;;;;;;;7350162;19;20326;-33
2024/02/03 08:47:18;;;;;;;343.00;166.85;;;;;;;;;;7329158;19;20905;-31
2024/02/03 08:49:56;;;;;;;390.15;201.73;;;;;;;;;;7349471;19;20372;-32
2024/02/03 08:52:28;;;;;;;320.73;146.32;;;;;;;;;;7328227;19;20317;-32
2024/02/03 08:54:59;;;;;;;305.95;149.45;;;;;;;;;;7325637;19;20321;-35
2024/02/03 08:57:29;;;;;;;277.55;134.32;;;;;;;;;;7347217;19;20328;-34
2024/02/03 08:59:58;;;;;;;274.67;132.18;;;;;;;;;;7327069;19;20333;-33
2024/02/03 09:02:28;;;;;;;239.02;117.75;;;;;;;;;;7348268;19;20888;-34
2024/02/03 09:04:57;;;;;;;306.50;144.65;;;;;;;;;;7326680;19;20370;-34
2024/02/03 09:07:29;;;;;;;278.85;135.82;;;;;;;;;;7347638;19;20397;-37
2024/02/03 09:09:59;;;;;;;255.93;121.32;;;;;;;;;;7327377;19;20386;-33
2024/02/03 09:12:29;;;;;;;282.17;134.10;;;;;;;;;;7348901;19;20321;-33
2024/02/03 09:14:59;;;;;;;241.25;112.68;;;;;;;;;;7325735;19;20451;-33
2024/02/03 09:17:29;;;;;;;212.93;99.35;;;;;;;;;;7348405;19;20329;-37
2024/02/03 09:19:58;;;;;;;198.70;92.80;;;;;;;;;;7326351;19;20423;-34
2024/02/03 09:22:30;;;;;;;190.05;89.40;;;;;;;;;;7340660;19;20317;-33
2024/02/03 09:24:59;;;;;;;170.73;83.40;;;;;;;;;;7325867;19;20865;-33
2024/02/03 09:27:29;;;;;;;304.63;146.35;;;;;;;;;;7348042;19;20374;-36
2024/02/03 09:29:58;;;;;;;202.05;96.60;;;;;;;;;;7325898;19;20341;-32
2024/02/03 09:32:28;;;;;;;237.05;109.03;;;;;;;;;;7347513;19;20312;-33
2024/02/03 09:34:58;;;;;;;206.25;95.07;;;;;;;;;;7324185;19;20357;-32
2024/02/03 09:37:30;;;;;;;209.65;97.13;;;;;;;;;;7346933;19;20396;-36
2024/02/03 09:40:03;;;;;;;177.45;81.47;;;;;;;;;;7326152;19;20393;-32
2024/02/03 09:42:33;;;;;;;170.32;78.25;;;;;;;;;;7347450;19;20400;-35
2024/02/03 09:45:03;;;;;;;152.40;68.65;;;;;;;;;;7325479;19;20328;-31
2024/02/03 09:47:34;;;;;;;122.05;53.20;;;;;;;;;;7347925;19;20700;-30
2024/02/03 09:50:05;;;;;;;114.68;49.67;;;;;;;;;;7325604;19;20362;-34
2024/02/03 09:52:38;;;;;;;107.90;46.63;;;;;;;;;;7345213;19;20714;-32
2024/02/03 09:55:08;;;;;;;99.40;45.95;;;;;;;;;;7323033;19;20407;-35
2024/02/03 09:57:37;;;;;;;87.65;39.70;;;;;;;;;;7348608;19;20686;-35
2024/02/03 10:00:08;;;;;;;90.32;41.65;;;;;;;;;;7326619;19;20688;-30
2024/02/03 10:02:37;;;;;;;258.80;124.20;;;;;;;;;;7348403;19;20404;-31
2024/02/03 10:05:08;;;;;;;229.85;104.28;;;;;;;;;;7323164;19;20333;-32
2024/02/03 10:07:40;;;;;;;248.48;113.78;;;;;;;;;;7344932;19;20336;-33
2024/02/03 10:10:10;;;;;;;195.35;92.60;;;;;;;;;;7325796;19;20400;-34
2024/02/03 10:12:42;;;;;;;177.85;78.38;;;;;;;;;;7346175;19;20507;-34
2024/02/03 10:15:12;;;;;;;174.65;76.47;;;;;;;;;;7322805;19;20340;-31
2024/02/03 10:17:41;;;;;;;142.80;62.38;;;;;;;;;;7346496;19;20358;-34
2024/02/03 10:20:11;;;;;;;147.45;64.00;;;;;;;;;;7326187;19;20289;-36
2024/02/03 10:22:45;;;;;;;113.55;51.63;;;;;;;;;;7347712;19;20328;-32
2024/02/03 10:25:15;;;;;;;98.35;45.33;;;;;;;;;;7326940;19;20300;-32
2024/02/03 10:27:48;;;;;;;100.60;45.08;;;;;;;;;;7347922;19;20363;-35
2024/02/03 10:30:21;;;;;;;103.13;46.13;;;;;;;;;;7327253;19;20329;-31
2024/02/03 10:32:52;;;;;;;88.47;41.30;;;;;;;;;;7323916;19;20320;-32
2024/02/03 10:35:22;;;;;;;80.67;36.57;;;;;;;;;;7346315;19;20359;-34
2024/02/03 10:37:54;;;;;;;78.73;34.40;;;;;;;;;;7323964;19;20320;-32
2024/02/03 10:40:24;;;;;;;70.90;32.08;;;;;;;;;;7347493;19;20413;-33
2024/02/03 10:42:55;;;;;;;69.13;32.63;;;;;;;;;;7323913;19;20320;-35
2024/02/03 10:45:30;;;;;;;62.08;29.60;;;;;;;;;;7345856;19;20412;-34
2024/02/03 10:48:01;;;;;;;61.50;27.80;;;;;;;;;;7324229;19;20408;-31
2024/02/03 10:50:34;;;;;;;55.75;25.45;;;;;;;;;;7344082;19;20328;-31
2024/02/03 10:53:09;;;;;;;51.97;23.33;;;;;;;;;;7323732;19;20321;-31
2024/02/03 10:55:41;;;;;;;48.43;21.50;;;;;;;;;;7346678;19;20392;-35
2024/02/03 10:58:11;;;;;;;44.30;20.05;;;;;;;;;;7325215;19;20290;-32
2024/02/03 11:00:41;;;;;;;44.70;18.25;;;;;;;;;;7346133;19;20320;-34
2024/02/03 11:03:12;;;;;;;44.80;19.25;;;;;;;;;;7323666;19;20301;-33
2024/02/03 11:05:42;;;;;;;42.92;19.02;;;;;;;;;;7345910;19;20405;-31
2024/02/03 11:08:14;;;;;;;38.58;15.35;;;;;;;;;;7324772;19;20818;-32
2024/02/03 11:10:43;;;;;;;31.60;13.95;;;;;;;;;;7346445;19;20703;-33
2024/02/03 11:13:19;;;;;;;33.42;14.25;;;;;;;;;;7323948;19;20340;-34
2024/02/03 11:15:48;;;;;;;27.10;11.97;;;;;;;;;;7345634;19;20328;-31
2024/02/03 11:18:18;;;;;;;30.55;11.73;;;;;;;;;;7325687;19;20296;-35
2024/02/03 11:20:47;;;;;;;30.08;11.30;;;;;;;;;;7345738;19;20354;-32
2024/02/03 11:23:19;;;;;;;28.58;10.80;;;;;;;;;;7324756;19;20296;-33
2024/02/03 11:25:49;;;;;;;27.67;11.43;;;;;;;;;;7345933;19;20411;-33
2024/02/03 11:28:19;;;;;;;23.13;11.00;;;;;;;;;;7325168;19;20684;-31
2024/02/03 11:30:48;;;;;;;24.77;9.90;;;;;;;;;;7345877;19;20324;-31
2024/02/03 11:33:18;;;;;;;26.05;10.60;;;;;;;;;;7323905;19;20301;-37
2024/02/03 11:35:48;;;;;;;23.83;9.00;;;;;;;;;;7344701;19;20868;-31
2024/02/03 11:38:20;;;;;;;21.50;9.00;;;;;;;;;;7325817;19;20658;-33
2024/02/03 11:40:54;;;;;;;25.35;8.43;;;;;;;;;;7340211;19;20324;-32
2024/02/03 11:43:26;;;;;;;19.33;7.53;;;;;;;;;;7345555;19;20317;-34
2024/02/03 11:46:00;;;;;;;20.95;7.00;;;;;;;;;;7322500;19;20328;-31
2024/02/03 11:48:29;;;;;;;17.08;6.28;;;;;;;;;;7345396;19;20795;-33
2024/02/03 11:50:59;;;;;;;20.98;6.78;;;;;;;;;;7322637;19;20892;-34
2024/02/03 11:53:31;;;;;;;18.75;5.90;;;;;;;;;;7343642;19;20321;-33
2024/02/03 11:56:01;;;;;;;16.27;6.20;;;;;;;;;;7322636;19;20339;-34
2024/02/03 11:58:30;;;;;;;19.40;5.37;;;;;;;;;;7344443;19;20332;-33
2024/02/03 12:01:04;;;;;;;22.25;5.90;;;;;;;;;;7325314;19;20864;-34
2024/02/03 12:03:35;;;;;;;18.17;5.60;;;;;;;;;;7350400;19;20328;-31
2024/02/03 12:06:05;;;;;;;14.98;5.10;;;;;;;;;;7329430;19;20337;-36
2024/02/03 12:08:37;;;;;;;18.35;5.40;;;;;;;;;;7350984;19;20324;-34
2024/02/03 12:11:07;;;;;;;14.85;5.20;;;;;;;;;;7329780;19;20861;-31
2024/02/03 12:13:43;;;;;;;15.07;5.05;;;;;;;;;;7350572;19;20324;-33
2024/02/03 12:16:13;;;;;;;13.98;4.68;;;;;;;;;;7329617;19;20301;-35
2024/02/03 12:18:43;;;;;;;17.98;4.90;;;;;;;;;;7351220;19;20400;-34
2024/02/03 12:21:13;;;;;;;17.27;5.47;;;;;;;;;;7329884;19;20321;-33
2024/02/03 12:23:45;;;;;;;17.93;5.30;;;;;;;;;;7349813;19;20333;-35
2024/02/03 12:26:14;;;;;;;17.75;4.70;;;;;;;;;;7330191;19;20289;-32
2024/02/03 12:28:44;;;;;;;14.63;3.90;;;;;;;;;;7350794;19;20407;-31
2024/02/03 12:31:14;;;;;;;15.30;4.57;;;;;;;;;;7328963;19;20372;-33
2024/02/03 12:33:44;;;;;;;19.77;4.97;;;;;;;;;;7325033;19;20320;-30
2024/02/03 12:36:14;;;;;;;14.63;4.20;;;;;;;;;;7316847;19;20332;-32
2024/02/03 12:38:46;;;;;;;18.40;4.65;;;;;;;;;;7343531;19;20856;-35
2024/02/03 12:41:16;;;;;;;65.15;29.02;;;;;;;;;;7324137;19;20437;-34
2024/02/03 12:43:45;;;;;;;251.52;111.50;;;;;;;;;;7339505;19;20380;-35
2024/02/03 12:46:16;;;;;;;245.85;100.30;;;;;;;;;;7326620;19;20880;-32
2024/02/03 12:48:46;;;;;;;189.05;81.63;;;;;;;;;;7348937;19;20325;-32
2024/02/03 12:51:17;;;;;;;153.10;66.90;;;;;;;;;;7329281;19;20376;-37
2024/02/03 12:53:49;;;;;;;149.35;61.15;;;;;;;;;;7347448;19;20419;-30
2024/02/03 12:56:18;;;;;;;124.50;54.05;;;;;;;;;;7309882;19;20332;-29
2024/02/03 12:58:49;;;;;;;118.07;51.35;;;;;;;;;;7347790;19;20317;-31
2024/02/03 13:01:19;;;;;;;102.72;43.85;;;;;;;;;;7315573;19;20697;-31
2024/02/03 13:03:49;;;;;;;115.30;46.93;;;;;;;;;;7347314;19;20327;-31
2024/02/03 13:06:18;;;;;;;95.75;41.97;;;;;;;;;;7328452;19;20307;-30
2024/02/03 13:08:50;;;;;;;87.10;37.28;;;;;;;;;;7349496;19;20941;-34
2024/02/03 13:11:20;;;;;;;91.78;37.67;;;;;;;;;;7329566;19;20663;-32
2024/02/03 13:13:51;;;;;;;80.77;34.73;;;;;;;;;;7333845;19;20328;-31
2024/02/03 13:16:21;;;;;;;70.90;30.55;;;;;;;;;;7349884;19;20317;-32
2024/02/03 13:18:51;;;;;;;59.70;27.60;;;;;;;;;;7340657;19;20339;-32
2024/02/03 13:21:20;;;;;;;60.03;26.75;;;;;;;;;;7350217;19;20316;-34
2024/02/03 13:23:52;;;;;;;56.72;23.40;;;;;;;;;;7348646;19;20993;-31
2024/02/03 13:26:22;;;;;;;52.00;23.90;;;;;;;;;;7328781;19;20309;-32
2024/02/03 13:28:51;;;;;;;56.33;24.67;;;;;;;;;;7333506;19;20304;-35
2024/02/03 13:31:23;;;;;;;47.67;20.52;;;;;;;;;;7348050;19;20313;-30
2024/02/03 13:33:53;;;;;;;48.10;19.55;;;;;;;;;;7325832;19;20436;-32
2024/02/03 13:36:22;;;;;;;49.00;20.73;;;;;;;;;;7347681;19;20301;-34
2024/02/03 13:38:54;;;;;;;39.07;17.30;;;;;;;;;;7325618;19;20659;-33
2024/02/03 13:41:24;;;;;;;42.10;16.05;;;;;;;;;;7348806;19;20459;-33
2024/02/03 13:43:54;;;;;;;34.40;13.40;;;;;;;;;;7320912;19;20332;-33
2024/02/03 13:46:25;;;;;;;30.35;11.60;;;;;;;;;;7342687;19;20892;-31
2024/02/03 13:48:57;;;;;;;34.13;13.25;;;;;;;;;;7321435;19;20328;-33
2024/02/03 13:51:27;;;;;;;36.70;13.40;;;;;;;;;;7345449;19;20889;-37
2024/02/03 13:54:03;;;;;;;31.25;11.35;;;;;;;;;;7324946;19;20328;-33
2024/02/03 13:56:33;;;;;;;30.80;10.50;;;;;;;;;;7347825;19;20412;-34
2024/02/03 13:59:03;;;;;;;26.23;10.05;;;;;;;;;;7325003;19;20321;-33
2024/02/03 14:01:34;;;;;;;29.35;10.20;;;;;;;;;;7347821;19;20331;-33
2024/02/03 14:04:03;;;;;;;23.52;9.52;;;;;;;;;;7324476;19;20329;-33
2024/02/03 14:06:33;;;;;;;25.98;9.30;;;;;;;;;;7347795;19;20333;-31
2024/02/03 14:09:06;;;;;;;21.98;7.80;;;;;;;;;;7325761;19;20336;-33
2024/02/03 14:11:36;;;;;;;25.95;8.38;;;;;;;;;;7347929;19;20351;-34
2024/02/03 14:14:22;;;;;;;25.75;8.15;;;;;;;;;;7326494;19;20297;-31
2024/02/03 14:16:51;;;;;;;21.88;6.57;;;;;;;;;;7329794;19;20371;-33
2024/02/03 14:19:21;;;;;;;26.65;7.43;;;;;;;;;;7348379;19;20297;-32